createdAt,value
2018-07-28T00:00:35.327Z,75.70
2018-07-28T00:03:04.399Z,75.20
2018-07-28T00:05:39.766Z,75.50
2018-07-28T00:08:09.042Z,75.30
2018-07-28T00:10:37.921Z,75.00
2018-07-28T00:13:06.459Z,75.70
2018-07-28T00:18:03.496Z,75.50
2018-07-28T00:20:31.996Z,75.50
2018-07-28T00:23:01.101Z,75.70
2018-07-28T00:25:33.848Z,75.20
2018-07-28T00:28:02.398Z,75.40
2018-07-28T00:30:30.906Z,75.40
2018-07-28T00:32:59.414Z,75.60
2018-07-28T00:35:27.905Z,75.50
2018-07-28T00:37:56.401Z,76.10
2018-07-28T00:40:24.927Z,76.40
2018-07-28T00:42:53.531Z,76.90
2018-07-28T00:45:22.359Z,76.60
2018-07-28T00:47:50.929Z,77.10
2018-07-28T00:50:27.983Z,76.80
2018-07-28T00:52:57.446Z,78.30
2018-07-28T00:55:26.183Z,77.50
2018-07-28T00:57:54.712Z,77.50
2018-07-28T01:00:23.276Z,77.90
2018-07-28T01:02:51.799Z,78.20
2018-07-28T01:05:20.298Z,78.30
2018-07-28T01:07:48.820Z,79.10
2018-07-28T01:10:17.383Z,79.80
2018-07-28T01:12:45.958Z,80.60
2018-07-28T01:15:14.511Z,81.10
2018-07-28T01:17:43.039Z,81.00
2018-07-28T01:20:12.063Z,81.20
2018-07-28T01:22:41.198Z,82.60
2018-07-28T01:25:11.312Z,82.40
2018-07-28T01:27:40.498Z,83.50
2018-07-28T01:30:12.582Z,84.20
2018-07-28T01:32:41.103Z,85.20
2018-07-28T01:35:09.908Z,85.10
2018-07-28T01:40:07.028Z,84.90
2018-07-28T01:42:36.102Z,86.00
2018-07-28T01:45:05.127Z,86.20
2018-07-28T01:47:33.603Z,87.60
2018-07-28T01:50:02.362Z,88.50
2018-07-28T01:52:30.847Z,89.60
2018-07-28T01:55:08.004Z,89.80
2018-07-28T01:57:36.555Z,90.30
2018-07-28T02:00:06.852Z,90.40
2018-07-28T02:02:35.675Z,90.50
2018-07-28T02:05:04.791Z,90.70
2018-07-28T02:07:34.052Z,91.10
2018-07-28T02:10:02.591Z,91.60
2018-07-28T02:12:31.362Z,92.00
2018-07-28T02:15:07.663Z,92.30
2018-07-28T02:17:36.192Z,93.00
2018-07-28T02:20:05.951Z,93.40
2018-07-28T02:22:34.786Z,93.80
2018-07-28T02:25:03.339Z,93.60
2018-07-28T02:27:32.852Z,93.90
2018-07-28T02:30:01.680Z,94.10
2018-07-28T02:32:41.261Z,94.60
2018-07-28T02:35:10.775Z,95.30
2018-07-28T02:37:39.604Z,95.60
2018-07-28T02:40:10.343Z,95.60
2018-07-28T02:42:44.998Z,95.80
2018-07-28T02:45:13.802Z,96.20
2018-07-28T02:47:42.521Z,96.50
2018-07-28T02:50:11.719Z,96.10
2018-07-28T02:52:40.219Z,96.60
2018-07-28T02:55:09.778Z,97.20
2018-07-28T02:57:38.805Z,97.70
2018-07-28T03:00:08.750Z,98.00
2018-07-28T03:02:37.705Z,98.50
2018-07-28T03:05:07.265Z,98.90
2018-07-28T03:07:35.757Z,98.80
2018-07-28T03:10:04.370Z,98.40
2018-07-28T03:12:33.504Z,98.40
2018-07-28T03:15:03.172Z,99.30
2018-07-28T03:17:31.663Z,99.70
2018-07-28T03:20:00.394Z,99.90
2018-07-28T03:22:29.159Z,99.90
2018-07-28T03:25:07.165Z,99.90
2018-07-28T03:27:35.643Z,99.90
2018-07-28T03:30:04.275Z,99.90
2018-07-28T03:32:48.546Z,99.90
2018-07-28T03:37:46.444Z,99.90
2018-07-28T03:40:15.081Z,99.90
2018-07-28T03:42:43.702Z,99.90
2018-07-28T03:45:12.582Z,99.90
2018-07-28T03:47:42.202Z,99.90
2018-07-28T03:50:11.395Z,99.90
2018-07-28T03:52:40.173Z,99.90
2018-07-28T03:55:09.723Z,99.90
2018-07-28T03:57:38.524Z,99.90
2018-07-28T04:00:09.939Z,99.90
2018-07-28T04:02:39.028Z,99.90
2018-07-28T04:05:09.480Z,99.90
2018-07-28T04:07:38.016Z,99.90
2018-07-28T04:10:07.531Z,99.90
2018-07-28T04:12:36.047Z,99.90
2018-07-28T04:15:06.808Z,99.90
2018-07-28T04:17:39.535Z,99.90
2018-07-28T04:20:08.220Z,99.90
2018-07-28T04:22:36.688Z,99.90
2018-07-28T04:25:05.236Z,99.90
2018-07-28T04:27:34.044Z,99.90
2018-07-28T04:30:02.778Z,99.90
2018-07-28T04:32:31.303Z,99.90
2018-07-28T04:34:59.786Z,99.90
2018-07-28T04:37:28.245Z,99.90
2018-07-28T04:39:56.759Z,99.90
2018-07-28T04:42:25.471Z,99.90
2018-07-28T04:44:53.959Z,99.90
2018-07-28T04:47:22.635Z,99.90
2018-07-28T04:49:51.124Z,99.90
2018-07-28T04:52:19.842Z,99.90
2018-07-28T04:54:48.548Z,99.90
2018-07-28T04:57:17.250Z,99.90
2018-07-28T04:59:46.054Z,99.90
2018-07-28T05:02:14.838Z,99.90
2018-07-28T05:04:43.587Z,99.90
2018-07-28T05:07:12.097Z,99.90
2018-07-28T05:09:40.891Z,99.90
2018-07-28T05:12:09.573Z,99.90
2018-07-28T05:14:38.444Z,99.90
2018-07-28T05:17:07.783Z,99.90
2018-07-28T05:19:46.484Z,99.90
2018-07-28T05:22:15.864Z,99.90
2018-07-28T05:24:44.357Z,99.90
2018-07-28T05:27:20.930Z,99.90
2018-07-28T05:29:49.995Z,99.90
2018-07-28T05:32:18.499Z,99.90
2018-07-28T05:34:47.787Z,99.90
2018-07-28T05:37:22.220Z,99.90
2018-07-28T05:40:02.196Z,99.90
2018-07-28T05:42:30.918Z,99.90
2018-07-28T05:44:59.757Z,99.90
2018-07-28T05:47:28.558Z,99.90
2018-07-28T05:49:57.075Z,99.90
2018-07-28T05:52:33.082Z,99.90
2018-07-28T05:55:02.488Z,99.90
2018-07-28T05:57:31.334Z,99.90
2018-07-28T05:59:59.982Z,99.90
2018-07-28T06:02:28.593Z,99.90
2018-07-28T06:04:57.967Z,99.90
2018-07-28T06:07:26.435Z,99.90
2018-07-28T06:09:55.326Z,99.90
2018-07-28T06:12:23.869Z,99.90
2018-07-28T06:14:52.937Z,99.90
2018-07-28T06:17:21.656Z,99.90
2018-07-28T06:19:59.965Z,99.90
2018-07-28T06:22:29.475Z,99.90
2018-07-28T06:24:58.019Z,99.90
2018-07-28T06:27:26.527Z,99.70
2018-07-28T06:29:55.028Z,99.90
2018-07-28T06:32:23.531Z,99.60
2018-07-28T06:34:52.330Z,98.50
2018-07-28T06:37:21.301Z,98.30
2018-07-28T06:39:49.815Z,98.60
2018-07-28T06:42:18.895Z,97.60
2018-07-28T06:44:47.667Z,97.00
2018-07-28T06:47:16.174Z,96.80
2018-07-28T06:49:44.683Z,96.40
2018-07-28T06:52:21.846Z,95.70
2018-07-28T06:54:51.026Z,95.40
2018-07-28T06:57:20.215Z,94.90
2018-07-28T06:59:48.946Z,94.60
2018-07-28T07:02:17.727Z,94.10
2018-07-28T07:04:46.250Z,94.60
2018-07-28T07:07:15.051Z,94.30
2018-07-28T07:09:44.178Z,93.80
2018-07-28T07:12:12.710Z,94.10
2018-07-28T07:14:41.207Z,93.80
2018-07-28T07:17:10.396Z,93.00
2018-07-28T07:19:39.233Z,93.40
2018-07-28T07:22:08.048Z,93.90
2018-07-28T07:24:36.918Z,92.40
2018-07-28T07:27:05.419Z,92.70
2018-07-28T07:29:33.932Z,92.40
2018-07-28T07:32:02.422Z,92.40
2018-07-28T07:34:43.046Z,92.60
2018-07-28T07:37:14.497Z,91.70
2018-07-28T07:39:43.758Z,91.80
2018-07-28T07:42:12.657Z,92.20
2018-07-28T07:44:41.470Z,92.60
2018-07-28T07:47:10.051Z,92.50
2018-07-28T07:49:47.225Z,92.90
2018-07-28T07:52:23.181Z,91.90
2018-07-28T07:54:52.359Z,92.00
2018-07-28T07:57:20.868Z,92.10
2018-07-28T07:59:49.333Z,91.80
2018-07-28T08:02:18.139Z,91.60
2018-07-28T08:04:46.605Z,92.20
2018-07-28T08:07:24.615Z,91.80
2018-07-28T08:10:02.323Z,91.30
2018-07-28T08:12:32.127Z,91.10
2018-07-28T08:15:01.594Z,91.20
2018-07-28T08:17:30.403Z,90.80
2018-07-28T08:19:59.199Z,89.80
2018-07-28T08:22:28.178Z,90.00
2018-07-28T08:24:56.882Z,88.00
2018-07-28T08:27:25.415Z,90.10
2018-07-28T08:29:54.435Z,88.60
2018-07-28T08:32:28.784Z,89.80
2018-07-28T08:34:57.643Z,89.30
2018-07-28T08:37:26.150Z,89.20
2018-07-28T08:39:55.223Z,88.40
2018-07-28T08:42:23.639Z,84.80
2018-07-28T08:44:52.687Z,84.30
2018-07-28T08:47:21.383Z,85.10
2018-07-28T08:49:50.083Z,83.30
2018-07-28T08:52:18.551Z,84.90
2018-07-28T08:54:47.630Z,82.70
2018-07-28T08:57:16.122Z,83.00
2018-07-28T08:59:44.578Z,84.20
2018-07-28T09:02:13.739Z,82.40
2018-07-28T09:04:42.309Z,83.40
2018-07-28T09:07:10.779Z,82.40
2018-07-28T09:09:39.233Z,81.90
2018-07-28T09:12:16.879Z,84.20
2018-07-28T09:14:45.786Z,80.70
2018-07-28T09:17:14.575Z,80.60
2018-07-28T09:19:43.010Z,82.00
2018-07-28T09:22:20.904Z,82.20
2018-07-28T09:24:49.447Z,82.70
2018-07-28T09:27:17.911Z,82.40
2018-07-28T09:29:46.680Z,83.50
2018-07-28T09:32:15.481Z,83.80
2018-07-28T09:34:44.203Z,88.70
2018-07-28T09:37:12.675Z,94.30
2018-07-28T09:39:50.295Z,97.40
2018-07-28T09:42:20.084Z,99.20
2018-07-28T09:44:48.830Z,99.90
2018-07-28T09:47:17.398Z,99.90
2018-07-28T09:49:45.854Z,99.90
2018-07-28T09:52:14.678Z,99.90
2018-07-28T09:54:43.121Z,99.90
2018-07-28T09:57:11.887Z,99.90
2018-07-28T09:59:40.340Z,99.90
2018-07-28T10:02:09.059Z,99.90
2018-07-28T10:04:49.356Z,99.90
2018-07-28T10:07:31.420Z,99.90
2018-07-28T10:10:00.688Z,99.90
2018-07-28T10:12:29.535Z,99.90
2018-07-28T10:14:58.065Z,99.90
2018-07-28T10:17:26.551Z,99.90
2018-07-28T10:19:54.991Z,99.90
2018-07-28T10:22:24.064Z,99.90
2018-07-28T10:24:52.520Z,99.90
2018-07-28T10:27:21.268Z,99.90
2018-07-28T10:29:49.699Z,99.90
2018-07-28T10:32:18.466Z,99.90
2018-07-28T10:34:47.253Z,99.90
2018-07-28T10:37:16.063Z,99.90
2018-07-28T10:39:44.498Z,99.90
2018-07-28T10:42:12.987Z,99.60
2018-07-28T10:44:41.427Z,99.90
2018-07-28T10:47:09.925Z,99.90
2018-07-28T10:49:38.404Z,99.90
2018-07-28T10:52:06.898Z,96.40
2018-07-28T10:54:45.630Z,96.10
2018-07-28T10:57:14.538Z,94.90
2018-07-28T10:59:43.050Z,93.20
2018-07-28T11:02:11.536Z,92.40
2018-07-28T11:04:40.013Z,92.80
2018-07-28T11:07:08.498Z,93.30
2018-07-28T11:09:37.280Z,93.30
2018-07-28T11:12:05.936Z,91.70
2018-07-28T11:14:34.428Z,92.00
2018-07-28T11:17:02.924Z,91.80
2018-07-28T11:19:31.732Z,91.50
2018-07-28T11:22:00.279Z,92.10
2018-07-28T11:24:29.070Z,92.70
2018-07-28T11:26:57.579Z,94.00
2018-07-28T11:29:26.044Z,92.90
2018-07-28T11:32:05.815Z,91.40
2018-07-28T11:34:45.403Z,91.10
2018-07-28T11:38:05.455Z,91.50
2018-07-28T11:40:45.780Z,91.10
2018-07-28T11:43:25.834Z,89.50
2018-07-28T11:46:05.453Z,89.60
2018-07-28T11:48:35.189Z,87.60
2018-07-28T11:51:11.758Z,85.10
2018-07-28T11:53:40.856Z,84.70
2018-07-28T11:56:09.315Z,81.30
2018-07-28T11:58:37.787Z,83.00
2018-07-28T12:01:06.276Z,84.50
2018-07-28T12:03:34.856Z,85.20
2018-07-28T12:06:03.823Z,78.10
2018-07-28T12:08:32.667Z,77.40
2018-07-28T12:11:01.451Z,77.80
2018-07-28T12:13:29.959Z,75.70
2018-07-28T12:15:58.427Z,75.70
2018-07-28T12:18:26.971Z,73.10
2018-07-28T12:20:55.671Z,74.10
2018-07-28T12:23:24.764Z,73.10
2018-07-28T12:25:53.243Z,74.10
2018-07-28T12:28:22.275Z,72.60
2018-07-28T12:30:50.838Z,72.80
2018-07-28T12:33:19.585Z,71.10
2018-07-28T12:35:48.422Z,70.70
2018-07-28T12:38:17.479Z,69.30
2018-07-28T12:40:45.992Z,68.50
2018-07-28T12:43:15.054Z,69.40
2018-07-28T12:45:43.801Z,67.20
2018-07-28T12:48:12.565Z,67.40
2018-07-28T12:50:41.099Z,70.50
2018-07-28T12:53:09.887Z,65.50
2018-07-28T12:55:38.735Z,66.60
2018-07-28T12:58:07.174Z,66.60
2018-07-28T13:00:36.244Z,67.10
2018-07-28T13:03:04.739Z,65.60
2018-07-28T13:05:33.241Z,66.10
2018-07-28T13:08:02.021Z,66.10
2018-07-28T13:10:30.531Z,66.60
2018-07-28T13:12:59.290Z,65.30
2018-07-28T13:15:28.463Z,65.80
2018-07-28T13:17:56.984Z,67.10
2018-07-28T13:20:34.204Z,66.80
2018-07-28T13:23:02.883Z,66.80
2018-07-28T13:25:37.941Z,67.70
2018-07-28T13:28:07.056Z,67.80
2018-07-28T13:30:35.803Z,68.00
2018-07-28T13:33:09.312Z,68.90
2018-07-28T13:35:38.220Z,68.20
2018-07-28T13:38:06.781Z,64.20
2018-07-28T13:40:35.257Z,63.50
2018-07-28T13:43:09.805Z,65.00
2018-07-28T13:45:38.792Z,64.60
2018-07-28T13:48:07.246Z,64.20
2018-07-28T13:50:36.021Z,64.00
2018-07-28T13:53:04.495Z,63.70
2018-07-28T13:55:33.255Z,63.90
2018-07-28T13:58:02.043Z,64.10
2018-07-28T14:00:30.530Z,64.30
2018-07-28T14:02:59.309Z,65.00
2018-07-28T14:05:28.044Z,64.90
2018-07-28T14:07:56.526Z,65.40
2018-07-28T14:10:25.287Z,66.30
2018-07-28T14:12:54.066Z,69.20
2018-07-28T14:15:22.913Z,73.20
2018-07-28T14:17:51.390Z,78.00
2018-07-28T14:20:19.847Z,85.00
2018-07-28T14:22:48.662Z,90.70
2018-07-28T14:25:17.502Z,99.90
2018-07-28T14:27:46.271Z,99.90
2018-07-28T14:30:14.966Z,99.90
2018-07-28T14:32:43.703Z,99.90
2018-07-28T14:35:12.164Z,99.90
2018-07-28T14:37:40.668Z,99.90
2018-07-28T14:40:09.145Z,99.90
2018-07-28T14:42:37.974Z,99.90
2018-07-28T14:45:07.926Z,99.90
2018-07-28T14:47:36.417Z,99.90
2018-07-28T14:50:05.443Z,99.90
2018-07-28T14:52:34.232Z,99.90
2018-07-28T14:55:02.661Z,99.90
2018-07-28T15:00:03.870Z,99.90
2018-07-28T15:02:32.860Z,99.90
2018-07-28T15:05:01.311Z,99.90
2018-07-28T15:07:29.819Z,99.90
2018-07-28T15:09:58.502Z,99.90
2018-07-28T15:12:26.982Z,99.90
2018-07-28T15:14:55.436Z,99.90
2018-07-28T15:17:23.915Z,99.90
2018-07-28T15:19:52.364Z,99.90
2018-07-28T15:22:20.918Z,99.90
2018-07-28T15:24:49.375Z,99.90
2018-07-28T15:27:18.100Z,99.90
2018-07-28T15:29:46.811Z,99.90
2018-07-28T15:32:15.595Z,99.90
2018-07-28T15:34:44.251Z,99.90
2018-07-28T15:37:12.717Z,99.90
2018-07-28T15:39:41.406Z,99.90
2018-07-28T15:42:09.923Z,99.90
2018-07-28T15:44:38.714Z,99.90
2018-07-28T15:47:07.479Z,99.90
2018-07-28T15:49:35.978Z,99.90
2018-07-28T15:52:06.048Z,99.90
2018-07-28T15:57:02.923Z,99.90
2018-07-28T15:59:31.718Z,99.90
2018-07-28T16:02:00.213Z,99.90
2018-07-28T16:04:28.681Z,99.90
2018-07-28T16:06:57.182Z,99.90
2018-07-28T16:09:25.906Z,99.90
2018-07-28T16:12:03.118Z,99.90
2018-07-28T16:14:40.404Z,99.90
2018-07-28T16:17:09.591Z,99.90
2018-07-28T16:19:45.723Z,99.90
2018-07-28T16:22:14.196Z,99.90
2018-07-28T16:24:45.664Z,99.90
2018-07-28T16:27:14.125Z,99.90
2018-07-28T16:29:42.655Z,99.90
2018-07-28T16:32:11.424Z,99.90
2018-07-28T16:34:39.888Z,99.90
2018-07-28T16:37:14.830Z,99.90
2018-07-28T16:39:43.559Z,99.90
2018-07-28T16:42:12.069Z,99.90
2018-07-28T16:44:40.564Z,99.90
2018-07-28T16:47:09.380Z,99.90
2018-07-28T16:49:41.288Z,99.90
2018-07-28T16:52:09.965Z,99.90
2018-07-28T16:54:38.623Z,99.90
2018-07-28T16:57:07.246Z,99.90
2018-07-28T16:59:35.714Z,99.90
2018-07-28T17:02:04.201Z,99.90
2018-07-28T17:04:32.946Z,99.90
2018-07-28T17:07:01.437Z,99.90
2018-07-28T17:09:29.914Z,99.90
2018-07-28T17:11:58.415Z,99.90
2018-07-28T17:14:26.865Z,99.90
2018-07-28T17:16:55.328Z,99.90
2018-07-28T17:19:23.789Z,99.90
2018-07-28T17:21:52.244Z,99.90
2018-07-28T17:24:20.959Z,99.90
2018-07-28T17:26:49.443Z,99.90
2018-07-28T17:29:17.960Z,99.90
2018-07-28T17:31:46.775Z,99.90
2018-07-28T17:34:15.354Z,99.90
2018-07-28T17:36:43.858Z,99.90
2018-07-28T17:39:12.385Z,99.90
2018-07-28T17:41:41.407Z,99.90
2018-07-28T17:44:09.916Z,99.90
2018-07-28T17:46:38.441Z,99.90
2018-07-28T17:49:06.913Z,99.90
2018-07-28T17:51:35.723Z,99.90
2018-07-28T17:54:04.771Z,99.90
2018-07-28T17:56:33.967Z,99.90
2018-07-28T17:59:02.467Z,99.90
2018-07-28T18:01:30.967Z,99.90
2018-07-28T18:06:28.289Z,99.90
2018-07-28T18:08:57.226Z,99.90
2018-07-28T18:11:25.682Z,99.90
2018-07-28T18:13:59.470Z,99.90
2018-07-28T18:16:28.162Z,99.90
2018-07-28T18:18:56.927Z,99.90
2018-07-28T18:21:25.423Z,99.90
2018-07-28T18:23:53.973Z,99.90
2018-07-28T18:26:22.446Z,99.90
2018-07-28T18:28:53.659Z,99.90
2018-07-28T18:31:22.226Z,99.90
2018-07-28T18:33:50.734Z,99.90
2018-07-28T18:36:19.219Z,99.90
2018-07-28T18:38:48.038Z,99.90
2018-07-28T18:41:16.759Z,99.90
2018-07-28T18:43:45.913Z,99.90
2018-07-28T18:46:15.007Z,99.90
2018-07-28T18:48:43.856Z,99.90
2018-07-28T18:51:12.614Z,99.90
2018-07-28T18:53:41.107Z,99.90
2018-07-28T18:56:09.784Z,99.90
2018-07-28T18:58:38.280Z,99.90
2018-07-28T19:01:06.810Z,99.90
2018-07-28T19:03:35.342Z,99.90
2018-07-28T19:06:04.368Z,99.90
2018-07-28T19:08:35.999Z,99.90
2018-07-28T19:11:04.703Z,99.90
2018-07-28T19:13:40.396Z,99.90
2018-07-28T19:16:08.999Z,99.90
2018-07-28T19:18:42.907Z,99.90
2018-07-28T19:21:11.658Z,99.90
2018-07-28T19:23:45.472Z,99.90
2018-07-28T19:26:13.892Z,99.90
2018-07-28T19:28:47.708Z,99.90
2018-07-28T19:31:16.450Z,99.90
2018-07-28T19:33:44.915Z,99.90
2018-07-28T19:36:18.731Z,99.90
2018-07-28T19:38:47.740Z,99.90
2018-07-28T19:41:16.192Z,99.90
2018-07-28T19:43:44.671Z,99.90
2018-07-28T19:46:13.144Z,99.90
2018-07-28T19:48:41.663Z,99.90
2018-07-28T19:51:10.396Z,99.90
2018-07-28T19:53:38.853Z,99.90
2018-07-28T19:56:07.560Z,99.90
2018-07-28T19:58:36.073Z,99.90
2018-07-28T20:01:04.524Z,99.90
2018-07-28T20:03:33.234Z,99.90
2018-07-28T20:06:01.951Z,99.90
2018-07-28T20:08:30.404Z,99.90
2018-07-28T20:10:59.216Z,99.90
2018-07-28T20:13:27.667Z,99.90
2018-07-28T20:15:56.384Z,99.90
2018-07-28T20:18:24.839Z,99.90
2018-07-28T20:20:53.603Z,99.90
2018-07-28T20:23:22.428Z,99.90
2018-07-28T20:25:50.935Z,99.90
2018-07-28T20:28:19.695Z,99.90
2018-07-28T20:30:48.261Z,99.90
2018-07-28T20:33:16.728Z,99.90
2018-07-28T20:35:45.240Z,99.90
2018-07-28T20:38:13.959Z,99.90
2018-07-28T20:40:46.049Z,99.90
2018-07-28T20:43:14.599Z,99.90
2018-07-28T20:45:43.097Z,99.90
2018-07-28T20:48:11.944Z,99.90
2018-07-28T20:50:40.436Z,99.90
2018-07-28T20:53:09.488Z,99.90
2018-07-28T20:55:40.068Z,99.90
2018-07-28T20:58:08.658Z,99.90
2018-07-28T21:03:05.440Z,99.90
2018-07-28T21:05:33.927Z,99.90
2018-07-28T21:08:02.679Z,99.90
2018-07-28T21:10:31.471Z,99.90
2018-07-28T21:12:59.962Z,99.90
2018-07-28T21:15:33.071Z,99.90
2018-07-28T21:18:03.106Z,99.90
2018-07-28T21:20:31.641Z,99.90
2018-07-28T21:23:00.554Z,99.90
2018-07-28T21:25:29.053Z,99.90
2018-07-28T21:27:57.899Z,99.90
2018-07-28T21:30:26.407Z,99.90
2018-07-28T21:32:59.834Z,99.90
2018-07-28T21:35:31.812Z,99.90
2018-07-28T21:38:00.467Z,99.90
2018-07-28T21:40:31.656Z,99.90
2018-07-28T21:43:00.568Z,99.90
2018-07-28T21:45:29.047Z,99.90
2018-07-28T21:47:57.514Z,99.90
2018-07-28T21:50:26.420Z,99.90
2018-07-28T21:52:55.223Z,99.90
2018-07-28T21:55:23.729Z,99.90
2018-07-28T21:57:52.503Z,99.90
2018-07-28T22:00:21.044Z,99.90
2018-07-28T22:02:49.583Z,99.90
2018-07-28T22:05:20.253Z,99.90
2018-07-28T22:07:49.908Z,99.90
2018-07-28T22:10:18.646Z,99.90
2018-07-28T22:12:47.136Z,99.90
2018-07-28T22:15:15.907Z,99.90
2018-07-28T22:17:44.427Z,99.90
2018-07-28T22:20:13.442Z,99.90
2018-07-28T22:22:41.934Z,99.90
2018-07-28T22:25:10.759Z,99.90
2018-07-28T22:27:39.240Z,99.90
2018-07-28T22:30:08.137Z,99.90
2018-07-28T22:32:36.919Z,99.90
2018-07-28T22:35:05.474Z,99.90
2018-07-28T22:37:33.954Z,99.90
2018-07-28T22:40:02.535Z,99.90
2018-07-28T22:42:42.264Z,99.90
2018-07-28T22:45:11.066Z,99.90
2018-07-28T22:47:39.583Z,99.90
2018-07-28T22:50:08.404Z,99.90
2018-07-28T22:52:37.115Z,99.90
2018-07-28T22:55:05.667Z,99.90
2018-07-28T22:57:34.472Z,99.90
2018-07-28T23:00:03.366Z,99.90
2018-07-28T23:02:31.847Z,99.90
2018-07-28T23:05:00.356Z,99.90
2018-07-28T23:07:29.149Z,99.90
2018-07-28T23:10:06.086Z,99.90
2018-07-28T23:12:35.479Z,99.90
2018-07-28T23:15:04.054Z,99.90
2018-07-28T23:17:41.108Z,99.90
2018-07-28T23:20:19.111Z,99.90
2018-07-28T23:22:56.796Z,99.90
2018-07-28T23:25:25.892Z,99.90
2018-07-28T23:27:54.733Z,99.90
2018-07-28T23:30:23.515Z,99.90
2018-07-28T23:32:52.196Z,99.90
2018-07-28T23:35:20.690Z,99.90
2018-07-28T23:37:51.053Z,99.90
2018-07-28T23:40:19.918Z,99.90
2018-07-28T23:42:48.771Z,99.90
2018-07-28T23:45:18.123Z,99.90
2018-07-28T23:47:46.814Z,99.90
2018-07-28T23:50:15.330Z,99.90
2018-07-28T23:52:43.789Z,99.90
2018-07-28T23:55:12.587Z,99.90
2018-07-28T23:57:41.062Z,99.90
